sensor_id;sensor_type;location;lat;lon;timestamp;pressure;altitude;pressure_sealevel;temperature;humidity
3464;BME280;3551;41.578;24.706;2022-09-01T00:01:59;91183.91;;;16.95;90.66
3464;BME280;3551;41.578;24.706;2022-09-01T00:04:33;91179.50;;;17.01;88.83
3464;BME280;3551;41.578;24.706;2022-09-01T00:07:01;91183.59;;;16.93;88.66
3464;BME280;3551;41.578;24.706;2022-09-01T00:09:29;91181.47;;;17.13;88.27
3464;BME280;3551;41.578;24.706;2022-09-01T00:11:56;91175.41;;;17.09;87.64
3464;BME280;3551;41.578;24.706;2022-09-01T00:14:24;91174.75;;;17.30;85.77
3464;BME280;3551;41.578;24.706;2022-09-01T00:16:52;91166.09;;;17.22;86.85
3464;BME280;3551;41.578;24.706;2022-09-01T00:19:21;91167.09;;;16.33;90.26
3464;BME280;3551;41.578;24.706;2022-09-01T00:21:48;91167.44;;;16.35;92.08
3464;BME280;3551;41.578;24.706;2022-09-01T00:24:16;91163.16;;;16.50;90.75
3464;BME280;3551;41.578;24.706;2022-09-01T00:26:44;91165.50;;;16.64;90.40
3464;BME280;3551;41.578;24.706;2022-09-01T00:29:12;91168.44;;;16.82;88.96
3464;BME280;3551;41.578;24.706;2022-09-01T00:31:39;91166.97;;;17.07;88.05
3464;BME280;3551;41.578;24.706;2022-09-01T00:34:07;91163.94;;;17.05;88.91
3464;BME280;3551;41.578;24.706;2022-09-01T00:36:34;91165.03;;;17.07;89.46
3464;BME280;3551;41.578;24.706;2022-09-01T00:39:02;91159.59;;;16.95;89.29
3464;BME280;3551;41.578;24.706;2022-09-01T00:41:30;91158.59;;;16.76;89.48
3464;BME280;3551;41.578;24.706;2022-09-01T00:44:00;91160.78;;;16.94;89.06
3464;BME280;3551;41.578;24.706;2022-09-01T00:46:28;91157.66;;;16.95;87.87
3464;BME280;3551;41.578;24.706;2022-09-01T00:48:56;91168.25;;;16.90;88.06
3464;BME280;3551;41.578;24.706;2022-09-01T00:51:24;91160.84;;;16.65;89.46
3464;BME280;3551;41.578;24.706;2022-09-01T00:53:51;91161.75;;;16.74;89.32
3464;BME280;3551;41.578;24.706;2022-09-01T00:56:20;91158.06;;;16.68;89.62
3464;BME280;3551;41.578;24.706;2022-09-01T00:58:47;91153.09;;;16.79;89.08
3464;BME280;3551;41.578;24.706;2022-09-01T01:01:15;91151.19;;;16.93;88.54
3464;BME280;3551;41.578;24.706;2022-09-01T01:03:42;91153.97;;;16.89;87.87
3464;BME280;3551;41.578;24.706;2022-09-01T01:06:09;91152.16;;;16.99;87.59
3464;BME280;3551;41.578;24.706;2022-09-01T01:08:39;91163.28;;;17.01;87.70
3464;BME280;3551;41.578;24.706;2022-09-01T01:11:08;91164.59;;;17.09;88.55
3464;BME280;3551;41.578;24.706;2022-09-01T01:13:45;91153.13;;;17.05;88.12
3464;BME280;3551;41.578;24.706;2022-09-01T01:16:13;91153.75;;;16.96;88.03
3464;BME280;3551;41.578;24.706;2022-09-01T01:18:42;91159.06;;;17.00;87.95
3464;BME280;3551;41.578;24.706;2022-09-01T01:21:16;91152.53;;;16.59;89.31
3464;BME280;3551;41.578;24.706;2022-09-01T01:24:01;91146.84;;;16.82;89.18
3464;BME280;3551;41.578;24.706;2022-09-01T01:26:32;91145.84;;;16.76;88.85
3464;BME280;3551;41.578;24.706;2022-09-01T01:28:59;91157.53;;;16.86;87.42
3464;BME280;3551;41.578;24.706;2022-09-01T01:31:27;91152.16;;;16.86;87.31
3464;BME280;3551;41.578;24.706;2022-09-01T01:33:55;91152.34;;;16.66;88.40
3464;BME280;3551;41.578;24.706;2022-09-01T01:36:23;91157.19;;;16.71;88.25
3464;BME280;3551;41.578;24.706;2022-09-01T01:38:56;91143.72;;;16.43;89.76
3464;BME280;3551;41.578;24.706;2022-09-01T01:41:27;91144.13;;;16.41;89.90
3464;BME280;3551;41.578;24.706;2022-09-01T01:43:56;91149.50;;;16.57;89.02
3464;BME280;3551;41.578;24.706;2022-09-01T01:46:24;91136.78;;;16.70;87.99
3464;BME280;3551;41.578;24.706;2022-09-01T01:48:51;91149.41;;;16.73;88.01
3464;BME280;3551;41.578;24.706;2022-09-01T01:51:19;91145.19;;;16.72;88.13
3464;BME280;3551;41.578;24.706;2022-09-01T01:53:49;91140.91;;;16.75;88.02
3464;BME280;3551;41.578;24.706;2022-09-01T01:56:17;91134.06;;;16.58;89.01
3464;BME280;3551;41.578;24.706;2022-09-01T01:58:44;91136.75;;;16.29;91.12
3464;BME280;3551;41.578;24.706;2022-09-01T02:01:12;91137.97;;;16.41;90.45
3464;BME280;3551;41.578;24.706;2022-09-01T02:03:41;91129.88;;;16.69;88.81
3464;BME280;3551;41.578;24.706;2022-09-01T02:06:08;91130.50;;;16.73;89.12
3464;BME280;3551;41.578;24.706;2022-09-01T02:08:36;91128.31;;;16.56;89.67
3464;BME280;3551;41.578;24.706;2022-09-01T02:11:04;91127.06;;;16.44;90.01
3464;BME280;3551;41.578;24.706;2022-09-01T02:13:31;91129.22;;;16.37;90.32
3464;BME280;3551;41.578;24.706;2022-09-01T02:15:59;91128.06;;;16.50;89.84
3464;BME280;3551;41.578;24.706;2022-09-01T02:18:29;91135.28;;;16.69;89.16
3464;BME280;3551;41.578;24.706;2022-09-01T02:20:58;91127.72;;;16.77;89.38
3464;BME280;3551;41.578;24.706;2022-09-01T02:23:25;91133.94;;;16.61;89.55
3464;BME280;3551;41.578;24.706;2022-09-01T02:25:52;91129.53;;;16.55;89.89
3464;BME280;3551;41.578;24.706;2022-09-01T02:28:20;91130.22;;;16.43;90.98
3464;BME280;3551;41.578;24.706;2022-09-01T02:30:47;91136.50;;;16.23;91.27
3464;BME280;3551;41.578;24.706;2022-09-01T02:33:16;91131.22;;;16.20;91.74
3464;BME280;3551;41.578;24.706;2022-09-01T02:35:45;91130.22;;;16.43;90.36
3464;BME280;3551;41.578;24.706;2022-09-01T02:38:12;91131.84;;;16.53;89.08
3464;BME280;3551;41.578;24.706;2022-09-01T02:40:39;91133.34;;;16.41;90.01
3464;BME280;3551;41.578;24.706;2022-09-01T02:43:09;91132.56;;;16.28;90.75
3464;BME280;3551;41.578;24.706;2022-09-01T02:45:38;91137.38;;;16.20;90.67
3464;BME280;3551;41.578;24.706;2022-09-01T02:48:06;91138.81;;;15.96;91.93
3464;BME280;3551;41.578;24.706;2022-09-01T02:50:34;91142.59;;;15.99;92.17
3464;BME280;3551;41.578;24.706;2022-09-01T02:53:02;91129.63;;;16.22;90.99
3464;BME280;3551;41.578;24.706;2022-09-01T02:55:34;91131.22;;;16.20;90.70
3464;BME280;3551;41.578;24.706;2022-09-01T02:58:01;91132.94;;;16.14;91.58
3464;BME280;3551;41.578;24.706;2022-09-01T03:00:27;91131.41;;;16.13;91.79
3464;BME280;3551;41.578;24.706;2022-09-01T03:02:56;91132.31;;;16.22;91.19
3464;BME280;3551;41.578;24.706;2022-09-01T03:05:24;91131.84;;;16.11;91.54
3464;BME280;3551;41.578;24.706;2022-09-01T03:07:53;91134.59;;;16.24;91.31
3464;BME280;3551;41.578;24.706;2022-09-01T03:10:26;91130.50;;;16.32;91.10
3464;BME280;3551;41.578;24.706;2022-09-01T03:12:58;91126.47;;;16.24;90.67
3464;BME280;3551;41.578;24.706;2022-09-01T03:15:25;91125.16;;;16.16;91.48
3464;BME280;3551;41.578;24.706;2022-09-01T03:17:52;91132.03;;;16.04;92.09
3464;BME280;3551;41.578;24.706;2022-09-01T03:20:19;91131.50;;;16.09;91.75
3464;BME280;3551;41.578;24.706;2022-09-01T03:22:47;91133.19;;;16.19;90.93
3464;BME280;3551;41.578;24.706;2022-09-01T03:25:14;91131.03;;;16.27;90.29
3464;BME280;3551;41.578;24.706;2022-09-01T03:27:42;91132.72;;;16.21;91.08
3464;BME280;3551;41.578;24.706;2022-09-01T03:30:10;91125.97;;;16.00;92.26
3464;BME280;3551;41.578;24.706;2022-09-01T03:32:37;91131.97;;;16.20;91.25
3464;BME280;3551;41.578;24.706;2022-09-01T03:35:04;91133.59;;;16.18;90.82
3464;BME280;3551;41.578;24.706;2022-09-01T03:37:32;91127.72;;;16.07;91.70
3464;BME280;3551;41.578;24.706;2022-09-01T03:40:00;91123.31;;;16.13;91.51
3464;BME280;3551;41.578;24.706;2022-09-01T03:42:28;91133.97;;;16.04;91.98
3464;BME280;3551;41.578;24.706;2022-09-01T03:44:56;91126.41;;;16.27;90.87
3464;BME280;3551;41.578;24.706;2022-09-01T03:47:23;91133.72;;;16.27;90.54
3464;BME280;3551;41.578;24.706;2022-09-01T03:49:51;91132.75;;;15.92;93.60
3464;BME280;3551;41.578;24.706;2022-09-01T03:52:19;91130.22;;;15.85;93.65
3464;BME280;3551;41.578;24.706;2022-09-01T03:54:54;91130.16;;;15.72;95.06
3464;BME280;3551;41.578;24.706;2022-09-01T03:57:23;91130.63;;;15.55;96.96
3464;BME280;3551;41.578;24.706;2022-09-01T03:59:50;91137.34;;;15.63;97.56
3464;BME280;3551;41.578;24.706;2022-09-01T04:02:19;91147.91;;;15.86;95.83
3464;BME280;3551;41.578;24.706;2022-09-01T04:04:47;91148.63;;;16.03;94.52
3464;BME280;3551;41.578;24.706;2022-09-01T04:07:14;91147.91;;;16.31;92.98
3464;BME280;3551;41.578;24.706;2022-09-01T04:09:41;91151.69;;;16.46;92.68
3464;BME280;3551;41.578;24.706;2022-09-01T04:12:08;91140.66;;;16.41;93.32
3464;BME280;3551;41.578;24.706;2022-09-01T04:14:36;91150.97;;;16.46;92.41
3464;BME280;3551;41.578;24.706;2022-09-01T04:17:03;91150.06;;;16.07;94.30
3464;BME280;3551;41.578;24.706;2022-09-01T04:19:48;91147.00;;;16.21;93.42
3464;BME280;3551;41.578;24.706;2022-09-01T04:22:15;91151.06;;;16.13;94.35
3464;BME280;3551;41.578;24.706;2022-09-01T04:24:42;91143.91;;;16.07;93.87
3464;BME280;3551;41.578;24.706;2022-09-01T04:27:09;91140.66;;;16.28;93.50
3464;BME280;3551;41.578;24.706;2022-09-01T04:29:36;91141.88;;;16.52;92.05
3464;BME280;3551;41.578;24.706;2022-09-01T04:32:04;91134.72;;;16.62;91.53
3464;BME280;3551;41.578;24.706;2022-09-01T04:34:32;91136.47;;;16.52;92.21
3464;BME280;3551;41.578;24.706;2022-09-01T04:37:05;91141.50;;;16.54;91.76
3464;BME280;3551;41.578;24.706;2022-09-01T04:39:32;91153.06;;;16.54;91.60
3464;BME280;3551;41.578;24.706;2022-09-01T04:42:00;91144.59;;;16.81;90.88
3464;BME280;3551;41.578;24.706;2022-09-01T04:44:33;91146.34;;;17.13;89.14
3464;BME280;3551;41.578;24.706;2022-09-01T04:47:00;91146.00;;;17.36;88.09
3464;BME280;3551;41.578;24.706;2022-09-01T04:49:27;91143.56;;;17.88;85.61
3464;BME280;3551;41.578;24.706;2022-09-01T04:51:57;91145.38;;;18.26;82.17
3464;BME280;3551;41.578;24.706;2022-09-01T04:54:26;91145.41;;;18.69;80.57
3464;BME280;3551;41.578;24.706;2022-09-01T04:56:53;91145.34;;;19.13;77.30
3464;BME280;3551;41.578;24.706;2022-09-01T04:59:20;91154.28;;;19.53;75.99
3464;BME280;3551;41.578;24.706;2022-09-01T05:01:48;91146.84;;;19.44;75.96
3464;BME280;3551;41.578;24.706;2022-09-01T05:04:19;91143.69;;;19.95;74.60
3464;BME280;3551;41.578;24.706;2022-09-01T05:06:47;91147.38;;;20.37;72.05
3464;BME280;3551;41.578;24.706;2022-09-01T05:09:15;91149.63;;;20.57;70.35
3464;BME280;3551;41.578;24.706;2022-09-01T05:11:44;91151.72;;;20.71;69.73
3464;BME280;3551;41.578;24.706;2022-09-01T05:14:12;91145.25;;;20.59;70.34
3464;BME280;3551;41.578;24.706;2022-09-01T05:16:42;91143.69;;;20.04;73.24
3464;BME280;3551;41.578;24.706;2022-09-01T05:19:15;91133.13;;;20.06;74.37
3464;BME280;3551;41.578;24.706;2022-09-01T05:21:48;91141.16;;;20.82;70.24
3464;BME280;3551;41.578;24.706;2022-09-01T05:24:16;91132.84;;;20.86;69.33
3464;BME280;3551;41.578;24.706;2022-09-01T05:26:49;91136.47;;;20.64;70.35
3464;BME280;3551;41.578;24.706;2022-09-01T05:29:16;91138.75;;;20.75;72.24
3464;BME280;3551;41.578;24.706;2022-09-01T05:31:46;91143.38;;;21.11;70.61
3464;BME280;3551;41.578;24.706;2022-09-01T05:34:13;91136.88;;;21.17;69.96
3464;BME280;3551;41.578;24.706;2022-09-01T05:36:50;91132.94;;;21.18;69.76
3464;BME280;3551;41.578;24.706;2022-09-01T05:39:17;91132.00;;;21.30;68.83
3464;BME280;3551;41.578;24.706;2022-09-01T05:41:45;91133.19;;;21.29;69.86
3464;BME280;3551;41.578;24.706;2022-09-01T05:44:15;91130.19;;;21.27;70.06
3464;BME280;3551;41.578;24.706;2022-09-01T05:49:09;91132.59;;;21.67;67.97
3464;BME280;3551;41.578;24.706;2022-09-01T05:51:41;91136.72;;;21.86;65.84
3464;BME280;3551;41.578;24.706;2022-09-01T05:54:09;91145.97;;;22.13;65.20
3464;BME280;3551;41.578;24.706;2022-09-01T05:56:36;91142.63;;;21.94;66.36
3464;BME280;3551;41.578;24.706;2022-09-01T05:59:05;91139.06;;;22.26;66.01
3464;BME280;3551;41.578;24.706;2022-09-01T06:01:33;91145.88;;;22.69;65.07
3464;BME280;3551;41.578;24.706;2022-09-01T06:04:06;91141.03;;;22.88;64.19
3464;BME280;3551;41.578;24.706;2022-09-01T06:06:34;91146.69;;;22.99;64.16
3464;BME280;3551;41.578;24.706;2022-09-01T06:09:03;91136.97;;;23.27;62.97
3464;BME280;3551;41.578;24.706;2022-09-01T06:11:30;91134.25;;;23.42;61.26
3464;BME280;3551;41.578;24.706;2022-09-01T06:13:57;91132.47;;;23.53;61.47
3464;BME280;3551;41.578;24.706;2022-09-01T06:16:24;91142.09;;;23.49;62.49
3464;BME280;3551;41.578;24.706;2022-09-01T06:18:53;91134.25;;;23.42;62.17
3464;BME280;3551;41.578;24.706;2022-09-01T06:21:21;91129.72;;;23.68;61.55
3464;BME280;3551;41.578;24.706;2022-09-01T06:23:49;91132.59;;;24.14;59.95
3464;BME280;3551;41.578;24.706;2022-09-01T06:26:18;91136.84;;;24.35;58.00
3464;BME280;3551;41.578;24.706;2022-09-01T06:28:45;91134.97;;;24.06;58.78
3464;BME280;3551;41.578;24.706;2022-09-01T06:31:12;91139.13;;;24.37;58.70
3464;BME280;3551;41.578;24.706;2022-09-01T06:33:39;91132.09;;;24.30;58.31
3464;BME280;3551;41.578;24.706;2022-09-01T06:36:07;91134.94;;;24.41;58.60
3464;BME280;3551;41.578;24.706;2022-09-01T06:38:38;91137.13;;;24.78;57.21
3464;BME280;3551;41.578;24.706;2022-09-01T06:41:06;91132.13;;;24.76;57.92
3464;BME280;3551;41.578;24.706;2022-09-01T06:43:34;91132.75;;;25.11;57.07
3464;BME280;3551;41.578;24.706;2022-09-01T06:46:03;91139.09;;;25.23;56.93
3464;BME280;3551;41.578;24.706;2022-09-01T06:48:30;91134.50;;;25.40;55.59
3464;BME280;3551;41.578;24.706;2022-09-01T06:50:58;91127.34;;;25.17;56.74
3464;BME280;3551;41.578;24.706;2022-09-01T06:53:29;91131.31;;;25.42;55.42
3464;BME280;3551;41.578;24.706;2022-09-01T06:55:58;91136.13;;;25.52;55.62
3464;BME280;3551;41.578;24.706;2022-09-01T06:58:27;91125.56;;;25.45;54.85
3464;BME280;3551;41.578;24.706;2022-09-01T07:00:55;91134.94;;;25.59;54.99
3464;BME280;3551;41.578;24.706;2022-09-01T07:03:22;91133.19;;;25.56;56.20
3464;BME280;3551;41.578;24.706;2022-09-01T07:05:49;91128.06;;;25.43;56.63
3464;BME280;3551;41.578;24.706;2022-09-01T07:08:17;91132.31;;;25.44;56.13
3464;BME280;3551;41.578;24.706;2022-09-01T07:10:48;91123.19;;;25.53;55.75
3464;BME280;3551;41.578;24.706;2022-09-01T07:13:17;91137.84;;;25.50;55.78
3464;BME280;3551;41.578;24.706;2022-09-01T07:15:44;91127.03;;;25.66;56.18
3464;BME280;3551;41.578;24.706;2022-09-01T07:18:14;91131.06;;;25.71;55.58
3464;BME280;3551;41.578;24.706;2022-09-01T07:20:42;91129.94;;;25.89;56.67
3464;BME280;3551;41.578;24.706;2022-09-01T07:23:08;91127.72;;;25.93;55.55
3464;BME280;3551;41.578;24.706;2022-09-01T07:25:37;91140.03;;;26.08;55.14
3464;BME280;3551;41.578;24.706;2022-09-01T07:28:06;91127.19;;;25.89;57.58
3464;BME280;3551;41.578;24.706;2022-09-01T07:30:38;91130.00;;;25.37;56.28
3464;BME280;3551;41.578;24.706;2022-09-01T07:33:05;91127.28;;;24.66;59.53
3464;BME280;3551;41.578;24.706;2022-09-01T07:35:36;91120.88;;;23.93;62.70
3464;BME280;3551;41.578;24.706;2022-09-01T07:38:04;91119.47;;;23.63;63.52
3464;BME280;3551;41.578;24.706;2022-09-01T07:40:32;91116.31;;;23.70;64.59
3464;BME280;3551;41.578;24.706;2022-09-01T07:43:02;91116.66;;;23.58;63.25
3464;BME280;3551;41.578;24.706;2022-09-01T07:45:34;91122.66;;;23.18;65.29
3464;BME280;3551;41.578;24.706;2022-09-01T07:48:04;91126.56;;;23.26;65.20
3464;BME280;3551;41.578;24.706;2022-09-01T07:50:31;91120.69;;;23.18;66.13
3464;BME280;3551;41.578;24.706;2022-09-01T07:52:59;91125.88;;;23.16;66.60
3464;BME280;3551;41.578;24.706;2022-09-01T07:55:26;91120.22;;;23.34;66.92
3464;BME280;3551;41.578;24.706;2022-09-01T07:57:53;91113.94;;;23.43;66.43
3464;BME280;3551;41.578;24.706;2022-09-01T08:00:20;91121.47;;;23.48;66.69
3464;BME280;3551;41.578;24.706;2022-09-01T08:02:53;91131.34;;;23.45;66.23
3464;BME280;3551;41.578;24.706;2022-09-01T08:05:20;91129.19;;;23.35;66.27
3464;BME280;3551;41.578;24.706;2022-09-01T08:07:51;91136.41;;;23.38;66.54
3464;BME280;3551;41.578;24.706;2022-09-01T08:10:18;91129.91;;;23.50;66.51
3464;BME280;3551;41.578;24.706;2022-09-01T08:12:47;91136.72;;;23.55;66.22
3464;BME280;3551;41.578;24.706;2022-09-01T08:15:14;91128.69;;;23.66;66.07
3464;BME280;3551;41.578;24.706;2022-09-01T08:17:42;91132.50;;;23.74;66.76
3464;BME280;3551;41.578;24.706;2022-09-01T08:20:13;91126.19;;;23.82;66.35
3464;BME280;3551;41.578;24.706;2022-09-01T08:22:42;91124.41;;;23.79;66.54
3464;BME280;3551;41.578;24.706;2022-09-01T08:25:09;91120.78;;;23.88;65.19
3464;BME280;3551;41.578;24.706;2022-09-01T08:27:36;91125.53;;;23.87;66.43
3464;BME280;3551;41.578;24.706;2022-09-01T08:30:05;91125.81;;;23.89;66.50
3464;BME280;3551;41.578;24.706;2022-09-01T08:32:32;91122.13;;;23.92;66.35
3464;BME280;3551;41.578;24.706;2022-09-01T08:35:00;91123.53;;;23.88;66.62
3464;BME280;3551;41.578;24.706;2022-09-01T08:37:28;91117.56;;;24.04;66.31
3464;BME280;3551;41.578;24.706;2022-09-01T08:39:55;91128.66;;;24.15;66.24
3464;BME280;3551;41.578;24.706;2022-09-01T08:42:25;91120.94;;;24.14;66.09
3464;BME280;3551;41.578;24.706;2022-09-01T08:45:03;91127.91;;;24.15;66.37
3464;BME280;3551;41.578;24.706;2022-09-01T08:47:35;91121.78;;;24.20;65.46
3464;BME280;3551;41.578;24.706;2022-09-01T08:50:03;91123.38;;;24.12;65.62
3464;BME280;3551;41.578;24.706;2022-09-01T08:52:36;91112.88;;;24.25;64.64
3464;BME280;3551;41.578;24.706;2022-09-01T08:55:05;91117.72;;;24.35;64.59
3464;BME280;3551;41.578;24.706;2022-09-01T08:57:34;91110.91;;;24.45;63.69
3464;BME280;3551;41.578;24.706;2022-09-01T09:00:02;91105.41;;;24.66;63.27
3464;BME280;3551;41.578;24.706;2022-09-01T09:02:33;91108.88;;;24.86;63.74
3464;BME280;3551;41.578;24.706;2022-09-01T09:05:05;91105.69;;;25.19;62.46
3464;BME280;3551;41.578;24.706;2022-09-01T09:07:39;91097.38;;;25.08;61.75
3464;BME280;3551;41.578;24.706;2022-09-01T09:10:10;91092.47;;;25.12;60.56
3464;BME280;3551;41.578;24.706;2022-09-01T09:12:44;91094.19;;;25.41;59.61
3464;BME280;3551;41.578;24.706;2022-09-01T09:15:19;91090.59;;;25.55;60.16
3464;BME280;3551;41.578;24.706;2022-09-01T09:17:48;91098.81;;;25.29;59.54
3464;BME280;3551;41.578;24.706;2022-09-01T09:20:18;91082.47;;;25.71;58.57
3464;BME280;3551;41.578;24.706;2022-09-01T09:22:49;91082.69;;;25.62;56.43
3464;BME280;3551;41.578;24.706;2022-09-01T09:25:17;91085.22;;;25.40;55.21
3464;BME280;3551;41.578;24.706;2022-09-01T09:27:44;91087.66;;;25.33;54.79
3464;BME280;3551;41.578;24.706;2022-09-01T09:30:13;91083.41;;;25.32;52.23
3464;BME280;3551;41.578;24.706;2022-09-01T09:32:44;91079.13;;;25.25;53.79
3464;BME280;3551;41.578;24.706;2022-09-01T09:35:17;91087.56;;;25.22;53.31
3464;BME280;3551;41.578;24.706;2022-09-01T09:37:44;91080.44;;;25.04;52.84
3464;BME280;3551;41.578;24.706;2022-09-01T09:40:14;91075.75;;;25.36;52.16
3464;BME280;3551;41.578;24.706;2022-09-01T09:42:42;91073.25;;;25.69;53.07
3464;BME280;3551;41.578;24.706;2022-09-01T09:45:26;91073.50;;;25.65;54.92
3464;BME280;3551;41.578;24.706;2022-09-01T09:47:54;91079.16;;;25.56;53.99
3464;BME280;3551;41.578;24.706;2022-09-01T09:50:23;91075.41;;;25.28;53.68
3464;BME280;3551;41.578;24.706;2022-09-01T09:52:51;91072.13;;;25.18;54.99
3464;BME280;3551;41.578;24.706;2022-09-01T09:55:24;91066.44;;;24.96;56.78
3464;BME280;3551;41.578;24.706;2022-09-01T09:57:52;91067.13;;;24.66;53.98
3464;BME280;3551;41.578;24.706;2022-09-01T10:00:20;91067.69;;;24.75;53.75
3464;BME280;3551;41.578;24.706;2022-09-01T10:02:50;91068.38;;;24.90;54.21
3464;BME280;3551;41.578;24.706;2022-09-01T10:05:23;91075.03;;;24.84;55.24
3464;BME280;3551;41.578;24.706;2022-09-01T10:07:50;91069.41;;;24.73;56.34
3464;BME280;3551;41.578;24.706;2022-09-01T10:10:26;91064.13;;;24.43;56.69
3464;BME280;3551;41.578;24.706;2022-09-01T10:12:54;91064.63;;;24.42;58.08
3464;BME280;3551;41.578;24.706;2022-09-01T10:15:21;91060.72;;;24.48;59.13
3464;BME280;3551;41.578;24.706;2022-09-01T10:17:48;91061.13;;;24.41;58.44
3464;BME280;3551;41.578;24.706;2022-09-01T10:20:18;91065.09;;;24.60;58.34
3464;BME280;3551;41.578;24.706;2022-09-01T10:22:46;91063.56;;;24.14;57.49
3464;BME280;3551;41.578;24.706;2022-09-01T10:25:15;91057.31;;;24.33;57.93
3464;BME280;3551;41.578;24.706;2022-09-01T10:27:46;91057.66;;;24.21;57.54
3464;BME280;3551;41.578;24.706;2022-09-01T10:30:14;91056.22;;;24.05;58.00
3464;BME280;3551;41.578;24.706;2022-09-01T10:32:43;91055.94;;;24.03;57.96
3464;BME280;3551;41.578;24.706;2022-09-01T10:35:12;91064.72;;;24.27;57.94
3464;BME280;3551;41.578;24.706;2022-09-01T10:37:40;91060.25;;;24.30;56.79
3464;BME280;3551;41.578;24.706;2022-09-01T10:40:12;91057.69;;;24.46;56.17
3464;BME280;3551;41.578;24.706;2022-09-01T10:42:39;91063.47;;;24.74;57.30
3464;BME280;3551;41.578;24.706;2022-09-01T10:45:16;91059.00;;;24.51;55.59
3464;BME280;3551;41.578;24.706;2022-09-01T10:47:45;91062.13;;;24.64;55.91
3464;BME280;3551;41.578;24.706;2022-09-01T10:50:23;91060.34;;;24.61;56.29
3464;BME280;3551;41.578;24.706;2022-09-01T10:52:54;91054.72;;;24.44;56.65
3464;BME280;3551;41.578;24.706;2022-09-01T10:55:22;91058.91;;;24.40;55.35
3464;BME280;3551;41.578;24.706;2022-09-01T10:57:52;91056.09;;;24.80;56.65
3464;BME280;3551;41.578;24.706;2022-09-01T11:06:00;91053.13;;;25.09;58.64
3464;BME280;3551;41.578;24.706;2022-09-01T11:08:39;91058.59;;;25.09;57.60
3464;BME280;3551;41.578;24.706;2022-09-01T11:11:07;91052.41;;;24.83;59.80
3464;BME280;3551;41.578;24.706;2022-09-01T11:13:40;91043.78;;;24.44;61.29
3464;BME280;3551;41.578;24.706;2022-09-01T11:16:31;91054.38;;;24.37;61.51
3464;BME280;3551;41.578;24.706;2022-09-01T11:19:15;91058.19;;;24.45;60.99
3464;BME280;3551;41.578;24.706;2022-09-01T11:21:48;91051.63;;;24.57;62.15
3464;BME280;3551;41.578;24.706;2022-09-01T11:30:07;91050.72;;;24.66;63.45
3464;BME280;3551;41.578;24.706;2022-09-01T11:32:35;91051.13;;;24.58;64.91
3464;BME280;3551;41.578;24.706;2022-09-01T11:35:04;91048.78;;;24.46;65.52
3464;BME280;3551;41.578;24.706;2022-09-01T11:37:33;91057.59;;;24.15;67.64
3464;BME280;3551;41.578;24.706;2022-09-01T11:40:01;91061.47;;;24.08;67.25
3464;BME280;3551;41.578;24.706;2022-09-01T11:42:28;91065.34;;;23.82;68.82
3464;BME280;3551;41.578;24.706;2022-09-01T11:45:01;91068.94;;;23.73;69.50
3464;BME280;3551;41.578;24.706;2022-09-01T11:47:29;91060.03;;;23.73;71.36
3464;BME280;3551;41.578;24.706;2022-09-01T11:49:57;91061.81;;;23.76;71.11
3464;BME280;3551;41.578;24.706;2022-09-01T11:52:27;91061.50;;;23.74;73.17
3464;BME280;3551;41.578;24.706;2022-09-01T11:54:59;91064.38;;;23.65;75.52
3464;BME280;3551;41.578;24.706;2022-09-01T11:57:27;91063.50;;;23.73;76.03
3464;BME280;3551;41.578;24.706;2022-09-01T11:59:54;91054.34;;;23.41;78.40
3464;BME280;3551;41.578;24.706;2022-09-01T12:02:22;91062.63;;;23.47;78.52
3464;BME280;3551;41.578;24.706;2022-09-01T12:04:50;91063.47;;;23.53;79.74
3464;BME280;3551;41.578;24.706;2022-09-01T12:07:24;91061.84;;;23.61;82.57
3464;BME280;3551;41.578;24.706;2022-09-01T12:09:52;91055.19;;;23.47;86.68
3464;BME280;3551;41.578;24.706;2022-09-01T12:12:38;91053.19;;;23.63;85.42
3464;BME280;3551;41.578;24.706;2022-09-01T12:15:07;91056.53;;;23.72;80.80
3464;BME280;3551;41.578;24.706;2022-09-01T12:17:35;91052.22;;;23.66;79.58
3464;BME280;3551;41.578;24.706;2022-09-01T12:22:47;91063.28;;;23.77;80.95
3464;BME280;3551;41.578;24.706;2022-09-01T12:25:17;91061.38;;;23.83;79.11
3464;BME280;3551;41.578;24.706;2022-09-01T12:27:46;91060.97;;;23.70;79.36
3464;BME280;3551;41.578;24.706;2022-09-01T12:30:12;91054.44;;;23.47;84.02
3464;BME280;3551;41.578;24.706;2022-09-01T12:32:40;91059.06;;;23.26;79.41
3464;BME280;3551;41.578;24.706;2022-09-01T12:35:12;91060.78;;;23.09;78.94
3464;BME280;3551;41.578;24.706;2022-09-01T12:37:42;91068.22;;;23.23;78.02
3464;BME280;3551;41.578;24.706;2022-09-01T12:43:03;91063.56;;;23.44;81.90
3464;BME280;3551;41.578;24.706;2022-09-01T12:45:37;91052.94;;;23.46;86.63
3464;BME280;3551;41.578;24.706;2022-09-01T12:48:05;91050.69;;;23.30;82.54
3464;BME280;3551;41.578;24.706;2022-09-01T12:50:39;91046.34;;;23.38;82.98
3464;BME280;3551;41.578;24.706;2022-09-01T12:53:12;91058.78;;;23.39;83.20
3464;BME280;3551;41.578;24.706;2022-09-01T12:55:40;91053.63;;;23.12;76.53
3464;BME280;3551;41.578;24.706;2022-09-01T12:58:21;91051.41;;;22.81;79.67
3464;BME280;3551;41.578;24.706;2022-09-01T13:00:53;91051.88;;;22.65;79.53
3464;BME280;3551;41.578;24.706;2022-09-01T13:03:20;91056.09;;;22.66;77.55
3464;BME280;3551;41.578;24.706;2022-09-01T13:05:49;91059.13;;;22.68;77.27
3464;BME280;3551;41.578;24.706;2022-09-01T13:08:16;91063.06;;;22.81;78.64
3464;BME280;3551;41.578;24.706;2022-09-01T13:10:44;91056.00;;;23.04;78.01
3464;BME280;3551;41.578;24.706;2022-09-01T13:13:12;91056.06;;;23.24;78.51
3464;BME280;3551;41.578;24.706;2022-09-01T13:15:41;91054.09;;;23.25;80.44
3464;BME280;3551;41.578;24.706;2022-09-01T13:18:08;91043.31;;;23.36;79.89
3464;BME280;3551;41.578;24.706;2022-09-01T13:20:34;91049.38;;;23.40;81.38
3464;BME280;3551;41.578;24.706;2022-09-01T13:23:01;91047.88;;;23.39;82.99
3464;BME280;3551;41.578;24.706;2022-09-01T13:25:28;91053.59;;;23.41;82.08
3464;BME280;3551;41.578;24.706;2022-09-01T13:27:54;91045.53;;;23.32;82.87
3464;BME280;3551;41.578;24.706;2022-09-01T13:30:22;91040.34;;;23.34;82.10
3464;BME280;3551;41.578;24.706;2022-09-01T13:32:53;91047.13;;;23.38;81.47
3464;BME280;3551;41.578;24.706;2022-09-01T13:35:20;91046.72;;;23.31;80.35
3464;BME280;3551;41.578;24.706;2022-09-01T13:37:47;91048.97;;;23.32;81.77
3464;BME280;3551;41.578;24.706;2022-09-01T13:40:14;91046.94;;;23.27;82.67